Main page
METAR-TAF:

METAR-TAF

Airports :

Larissa, Greece

latitude: 39-38N, longitude: 022-25E, elevation: 73 m

METAR: missing

Time: 03:06 (00:06 UTC)

Forecast

The report was made 1 hour and 6 minutes ago, at 23:00 UTC
Forecast valid from 07 at 00 UTC to 07 at 09 UTC
Wind 8 kt from the North/Northwest
Visibility 10 km or more
Few clouds at a height of 1000 ft
Broken clouds at a height of 2000 ft
Broken clouds at a height of 8000 ft
Temporary
from 07 at 00 UTC to 07 at 03 UTC
Visibility: 5000 m
rain
Becoming
from 07 at 07 UTC to 07 at 09 UTC
Few clouds at a height of 2000 ft
Scattered clouds at a height of 8000 ft

TAF: LGLR 062300Z 0700/0709 33008KT 9999 FEW010 BKN020 BKN080 TEMPO 0700/0703 5000 RA BECMG 0707/0709 FEW020 SCT080

Weather observations and forecasts of more than 4000 airports (METAR and TAF reports).

The available stations are represented by yellow and red dots on the map.

Hover mouse over dot to see the name of the station.

Then click to see weather observations and forecasts.

To change the map : click on the green buttons with a black cross to zoom in, on the green button with a dash to zoom out, or on the green arrows for adjacent maps.


METAR-TAF: